Agana, Guam
Current Conditions -  °F | °C
As of 1:54 AM on Monday 22 Dec 2014 (Local Time) from PGUM Reporting Station
Few Clouds Few Clouds  
Wind Chill: 82°   Ceiling: Unl
Heat Index: 89°   Visibility: 10mi
Dew Point: 75°   Wind: 15mph
Humidity: 79%   Direction: 80°E
Pressure: 29.85"   Gusts: 23mph
Location:  13.4751°N, 144.7484°E
Report Text: PGUM 211554Z 08013G20KT 10SM FEW110 28/24 A2985 RMK AO2 SLP101 T02780239
Loading
Personal Weather Stations






























Interactive Weather Map New forecast layout! Learn more

10-Day Weather Forecast

Advertisements
Track Severe Weather on mobile